sensor_id;sensor_type;location;lat;lon;timestamp;pressure;altitude;pressure_sealevel;temperature;humidity
60719;BME280;46567;51.660;5.824;2022-08-20T00:07:37;101450.0;;;21.6;86.5
60719;BME280;46567;51.660;5.824;2022-08-20T00:17:38;101450.0;;;21.5;86.5
60719;BME280;46567;51.660;5.824;2022-08-20T00:27:37;101460.0;;;21.5;86.5
60719;BME280;46567;51.660;5.824;2022-08-20T00:37:37;101460.0;;;21.4;86.5
60719;BME280;46567;51.660;5.824;2022-08-20T00:47:38;101450.0;;;21.3;86.5
60719;BME280;46567;51.660;5.824;2022-08-20T00:58:08;101450.0;;;21.2;86.5
60719;BME280;46567;51.660;5.824;2022-08-20T01:07:38;101440.0;;;21.1;87.0
60719;BME280;46567;51.660;5.824;2022-08-20T01:17:42;101450.0;;;21.1;87.0
60719;BME280;46567;51.660;5.824;2022-08-20T01:28:02;101460.0;;;21.0;87.5
60719;BME280;46567;51.660;5.824;2022-08-20T01:37:37;101450.0;;;21.0;88.0
60719;BME280;46567;51.660;5.824;2022-08-20T01:47:37;101440.0;;;21.0;88.0
60719;BME280;46567;51.660;5.824;2022-08-20T01:58:02;101450.0;;;21.1;88.0
60719;BME280;46567;51.660;5.824;2022-08-20T02:08:02;101450.0;;;21.1;88.0
60719;BME280;46567;51.660;5.824;2022-08-20T02:17:38;101440.0;;;21.0;88.5
60719;BME280;46567;51.660;5.824;2022-08-20T02:27:40;101450.0;;;21.0;88.5
60719;BME280;46567;51.660;5.824;2022-08-20T02:47:37;101450.0;;;21.0;89.0
60719;BME280;46567;51.660;5.824;2022-08-20T02:57:38;101450.0;;;21.0;89.0
60719;BME280;46567;51.660;5.824;2022-08-20T03:17:37;101450.0;;;21.0;89.5
60719;BME280;46567;51.660;5.824;2022-08-20T03:27:37;101450.0;;;21.0;89.5
60719;BME280;46567;51.660;5.824;2022-08-20T03:37:38;101470.0;;;21.0;89.5
60719;BME280;46567;51.660;5.824;2022-08-20T03:47:37;101450.0;;;21.0;90.0
60719;BME280;46567;51.660;5.824;2022-08-20T03:57:42;101450.0;;;21.0;90.0
60719;BME280;46567;51.660;5.824;2022-08-20T04:07:38;101460.0;;;21.0;90.0
60719;BME280;46567;51.660;5.824;2022-08-20T04:18:05;101460.0;;;21.0;90.0
60719;BME280;46567;51.660;5.824;2022-08-20T04:27:38;101480.0;;;20.9;90.0
60719;BME280;46567;51.660;5.824;2022-08-20T04:37:38;101480.0;;;20.8;90.0
60719;BME280;46567;51.660;5.824;2022-08-20T04:47:37;101500.0;;;20.7;90.5
60719;BME280;46567;51.660;5.824;2022-08-20T04:57:37;101510.0;;;20.7;90.5
60719;BME280;46567;51.660;5.824;2022-08-20T05:08:04;101510.0;;;20.8;91.0
60719;BME280;46567;51.660;5.824;2022-08-20T05:17:38;101520.0;;;20.8;91.0
60719;BME280;46567;51.660;5.824;2022-08-20T05:27:38;101530.0;;;20.8;91.0
60719;BME280;46567;51.660;5.824;2022-08-20T05:38:02;101520.0;;;20.7;91.0
60719;BME280;46567;51.660;5.824;2022-08-20T05:47:39;101530.0;;;20.7;91.0
60719;BME280;46567;51.660;5.824;2022-08-20T05:58:05;101540.0;;;20.8;91.0
60719;BME280;46567;51.660;5.824;2022-08-20T06:07:38;101550.0;;;20.8;91.0
60719;BME280;46567;51.660;5.824;2022-08-20T06:17:38;101550.0;;;20.9;91.0
60719;BME280;46567;51.660;5.824;2022-08-20T06:28:27;101550.0;;;20.8;90.5
60719;BME280;46567;51.660;5.824;2022-08-20T06:37:39;101550.0;;;20.7;91.0
60719;BME280;46567;51.660;5.824;2022-08-20T06:47:38;101560.0;;;20.8;91.0
60719;BME280;46567;51.660;5.824;2022-08-20T07:07:38;101550.0;;;21.0;91.0
60719;BME280;46567;51.660;5.824;2022-08-20T07:17:38;101560.0;;;21.2;90.5
60719;BME280;46567;51.660;5.824;2022-08-20T07:27:37;101560.0;;;21.4;90.5
60719;BME280;46567;51.660;5.824;2022-08-20T07:57:37;101590.0;;;21.9;90.0
60719;BME280;46567;51.660;5.824;2022-08-20T08:18:17;101600.0;;;22.5;88.0
60719;BME280;46567;51.660;5.824;2022-08-20T08:27:37;101600.0;;;22.8;87.0
60719;BME280;46567;51.660;5.824;2022-08-20T08:37:37;101600.0;;;23.6;86.5
60719;BME280;46567;51.660;5.824;2022-08-20T08:47:38;101610.0;;;24.0;82.5
60719;BME280;46567;51.660;5.824;2022-08-20T08:57:37;101610.0;;;24.3;80.0
60719;BME280;46567;51.660;5.824;2022-08-20T09:07:38;101620.0;;;24.2;77.5
60719;BME280;46567;51.660;5.824;2022-08-20T09:17:37;101630.0;;;23.9;77.0
60719;BME280;46567;51.660;5.824;2022-08-20T09:27:37;101630.0;;;24.4;75.5
60719;BME280;46567;51.660;5.824;2022-08-20T09:37:37;101630.0;;;24.3;74.5
60719;BME280;46567;51.660;5.824;2022-08-20T09:47:38;101630.0;;;24.2;72.5
60719;BME280;46567;51.660;5.824;2022-08-20T09:57:37;101620.0;;;24.8;72.5
60719;BME280;46567;51.660;5.824;2022-08-20T10:07:39;101620.0;;;24.8;69.0
60719;BME280;46567;51.660;5.824;2022-08-20T10:17:39;101640.0;;;24.5;70.0
60719;BME280;46567;51.660;5.824;2022-08-20T10:27:37;101640.0;;;24.8;69.0
60719;BME280;46567;51.660;5.824;2022-08-20T10:37:37;101640.0;;;24.7;68.5
60719;BME280;46567;51.660;5.824;2022-08-20T10:47:37;101640.0;;;25.4;66.5
60719;BME280;46567;51.660;5.824;2022-08-20T10:57:39;101640.0;;;25.5;63.5
60719;BME280;46567;51.660;5.824;2022-08-20T11:07:39;101650.0;;;25.5;62.0
60719;BME280;46567;51.660;5.824;2022-08-20T11:17:40;101650.0;;;25.3;61.5
60719;BME280;46567;51.660;5.824;2022-08-20T11:27:40;101650.0;;;26.1;60.0
60719;BME280;46567;51.660;5.824;2022-08-20T11:37:38;101650.0;;;26.5;57.0
60719;BME280;46567;51.660;5.824;2022-08-20T11:47:38;101660.0;;;26.9;55.5
60719;BME280;46567;51.660;5.824;2022-08-20T11:57:41;101650.0;;;26.4;54.5
60719;BME280;46567;51.660;5.824;2022-08-20T12:07:38;101640.0;;;26.9;54.5
60719;BME280;46567;51.660;5.824;2022-08-20T12:17:38;101640.0;;;27.2;52.0
60719;BME280;46567;51.660;5.824;2022-08-20T12:27:38;101640.0;;;27.3;50.5
60719;BME280;46567;51.660;5.824;2022-08-20T12:37:38;101650.0;;;27.2;49.0
60719;BME280;46567;51.660;5.824;2022-08-20T12:47:39;101650.0;;;27.1;50.0
60719;BME280;46567;51.660;5.824;2022-08-20T12:57:41;101650.0;;;27.5;49.0
60719;BME280;46567;51.660;5.824;2022-08-20T13:07:41;101640.0;;;27.6;48.0
60719;BME280;46567;51.660;5.824;2022-08-20T13:17:38;101640.0;;;27.4;47.0
60719;BME280;46567;51.660;5.824;2022-08-20T13:27:39;101630.0;;;27.5;47.5
60719;BME280;46567;51.660;5.824;2022-08-20T13:37:39;101620.0;;;28.1;46.5
60719;BME280;46567;51.660;5.824;2022-08-20T13:47:39;101620.0;;;28.4;45.0
60719;BME280;46567;51.660;5.824;2022-08-20T13:57:38;101620.0;;;28.4;44.0
60719;BME280;46567;51.660;5.824;2022-08-20T14:07:38;101610.0;;;28.8;43.5
60719;BME280;46567;51.660;5.824;2022-08-20T14:17:40;101610.0;;;29.1;43.0
60719;BME280;46567;51.660;5.824;2022-08-20T14:27:38;101610.0;;;29.2;42.0
60719;BME280;46567;51.660;5.824;2022-08-20T14:37:40;101620.0;;;29.1;42.0
60719;BME280;46567;51.660;5.824;2022-08-20T14:47:40;101620.0;;;29.1;42.0
60719;BME280;46567;51.660;5.824;2022-08-20T14:57:38;101620.0;;;29.2;41.0
60719;BME280;46567;51.660;5.824;2022-08-20T15:07:39;101620.0;;;28.6;41.0
60719;BME280;46567;51.660;5.824;2022-08-20T15:17:41;101610.0;;;28.4;42.0
60719;BME280;46567;51.660;5.824;2022-08-20T15:27:38;101610.0;;;28.3;42.5
60719;BME280;46567;51.660;5.824;2022-08-20T15:37:39;101600.0;;;28.9;41.5
60719;BME280;46567;51.660;5.824;2022-08-20T15:47:50;101610.0;;;29.4;41.5
60719;BME280;46567;51.660;5.824;2022-08-20T15:57:54;101610.0;;;29.5;40.5
60719;BME280;46567;51.660;5.824;2022-08-20T16:07:56;101620.0;;;29.3;41.0
60719;BME280;46567;51.660;5.824;2022-08-20T16:17:41;101620.0;;;28.4;42.0
60719;BME280;46567;51.660;5.824;2022-08-20T16:27:51;101630.0;;;28.0;43.5
60719;BME280;46567;51.660;5.824;2022-08-20T16:37:47;101640.0;;;27.6;43.5
60719;BME280;46567;51.660;5.824;2022-08-20T16:47:38;101640.0;;;27.5;44.5
60719;BME280;46567;51.660;5.824;2022-08-20T16:57:38;101640.0;;;27.6;44.5
60719;BME280;46567;51.660;5.824;2022-08-20T17:07:42;101630.0;;;27.6;44.5
60719;BME280;46567;51.660;5.824;2022-08-20T17:17:38;101640.0;;;27.5;44.5
60719;BME280;46567;51.660;5.824;2022-08-20T17:27:38;101640.0;;;27.1;45.0
60719;BME280;46567;51.660;5.824;2022-08-20T17:37:38;101650.0;;;26.8;45.0
60719;BME280;46567;51.660;5.824;2022-08-20T17:47:39;101650.0;;;26.5;45.5
60719;BME280;46567;51.660;5.824;2022-08-20T17:57:42;101660.0;;;26.1;46.0
60719;BME280;46567;51.660;5.824;2022-08-20T18:07:54;101660.0;;;25.4;47.5
60719;BME280;46567;51.660;5.824;2022-08-20T18:17:59;101670.0;;;24.6;49.0
60719;BME280;46567;51.660;5.824;2022-08-20T18:27:41;101680.0;;;23.8;50.0
60719;BME280;46567;51.660;5.824;2022-08-20T18:37:38;101690.0;;;23.1;52.0
60719;BME280;46567;51.660;5.824;2022-08-20T18:47:43;101690.0;;;22.5;53.0
60719;BME280;46567;51.660;5.824;2022-08-20T18:57:52;101700.0;;;22.0;53.5
60719;BME280;46567;51.660;5.824;2022-08-20T19:07:50;101700.0;;;21.6;54.5
60719;BME280;46567;51.660;5.824;2022-08-20T19:17:47;101700.0;;;21.2;55.5
60719;BME280;46567;51.660;5.824;2022-08-20T19:27:38;101700.0;;;21.0;56.0
60719;BME280;46567;51.660;5.824;2022-08-20T19:37:43;101700.0;;;20.9;57.0
60719;BME280;46567;51.660;5.824;2022-08-20T19:47:40;101700.0;;;20.7;58.0
60719;BME280;46567;51.660;5.824;2022-08-20T19:57:38;101700.0;;;20.5;57.5
60719;BME280;46567;51.660;5.824;2022-08-20T20:07:43;101710.0;;;20.3;58.0
60719;BME280;46567;51.660;5.824;2022-08-20T20:17:38;101710.0;;;20.1;58.0
60719;BME280;46567;51.660;5.824;2022-08-20T20:27:38;101710.0;;;19.9;58.5
60719;BME280;46567;51.660;5.824;2022-08-20T20:37:41;101710.0;;;19.6;59.5
60719;BME280;46567;51.660;5.824;2022-08-20T20:47:38;101700.0;;;19.4;60.0
60719;BME280;46567;51.660;5.824;2022-08-20T20:57:38;101690.0;;;19.2;60.5
60719;BME280;46567;51.660;5.824;2022-08-20T21:07:45;101690.0;;;19.0;61.0
60719;BME280;46567;51.660;5.824;2022-08-20T21:17:38;101690.0;;;18.8;61.0
60719;BME280;46567;51.660;5.824;2022-08-20T21:27:46;101700.0;;;18.6;62.0
60719;BME280;46567;51.660;5.824;2022-08-20T21:37:38;101690.0;;;18.4;62.5
60719;BME280;46567;51.660;5.824;2022-08-20T21:47:38;101680.0;;;18.2;63.0
60719;BME280;46567;51.660;5.824;2022-08-20T21:57:38;101680.0;;;18.1;63.5
60719;BME280;46567;51.660;5.824;2022-08-20T22:07:38;101690.0;;;17.9;64.0
60719;BME280;46567;51.660;5.824;2022-08-20T22:17:38;101680.0;;;17.8;64.5
60719;BME280;46567;51.660;5.824;2022-08-20T22:27:38;101670.0;;;17.6;65.0
60719;BME280;46567;51.660;5.824;2022-08-20T22:37:38;101680.0;;;17.4;65.5
60719;BME280;46567;51.660;5.824;2022-08-20T22:47:38;101670.0;;;17.2;66.0
60719;BME280;46567;51.660;5.824;2022-08-20T22:57:38;101670.0;;;17.1;66.5
60719;BME280;46567;51.660;5.824;2022-08-20T23:07:38;101670.0;;;17.0;67.0
60719;BME280;46567;51.660;5.824;2022-08-20T23:27:42;101660.0;;;16.8;67.5
60719;BME280;46567;51.660;5.824;2022-08-20T23:37:40;101650.0;;;16.6;68.0
60719;BME280;46567;51.660;5.824;2022-08-20T23:47:38;101640.0;;;16.5;68.5
60719;BME280;46567;51.660;5.824;2022-08-20T23:57:38;101640.0;;;16.4;68.5
